createdAt,value
2019-02-17T00:00:16.969Z,23.13
2019-02-17T00:02:48.207Z,23.03
2019-02-17T00:05:19.472Z,22.97
2019-02-17T00:07:53.188Z,26.27
2019-02-17T00:10:24.423Z,23.80
2019-02-17T00:12:55.695Z,26.70
2019-02-17T00:15:26.954Z,23.60
2019-02-17T00:17:58.286Z,25.57
2019-02-17T00:20:29.478Z,24.87
2019-02-17T00:23:00.776Z,25.43
2019-02-17T00:25:32.054Z,24.63
2019-02-17T00:28:03.357Z,23.30
2019-02-17T00:30:34.607Z,24.53
2019-02-17T00:33:05.784Z,22.30
2019-02-17T00:35:37.065Z,25.07
2019-02-17T00:38:08.370Z,24.93
2019-02-17T00:40:39.547Z,24.93
2019-02-17T00:43:10.677Z,24.20
2019-02-17T00:45:41.968Z,23.00
2019-02-17T00:48:13.229Z,24.80
2019-02-17T00:50:44.557Z,24.73
2019-02-17T00:53:15.924Z,23.70
2019-02-17T00:55:47.299Z,25.00
2019-02-17T00:58:18.590Z,23.23
2019-02-17T01:00:49.912Z,24.37
2019-02-17T01:03:21.162Z,22.73
2019-02-17T01:05:52.448Z,26.07
2019-02-17T01:08:23.721Z,24.57
2019-02-17T01:11:14.041Z,25.10
2019-02-17T01:13:45.345Z,23.33
2019-02-17T01:16:16.625Z,24.53
2019-02-17T01:18:47.886Z,24.40
2019-02-17T01:21:19.165Z,23.77
2019-02-17T01:23:50.478Z,23.63
2019-02-17T01:26:21.776Z,26.53
2019-02-17T01:28:53.033Z,25.10
2019-02-17T01:31:24.372Z,24.63
2019-02-17T01:33:55.580Z,26.20
2019-02-17T01:36:26.913Z,25.10
2019-02-17T01:38:58.240Z,26.27
2019-02-17T01:41:29.604Z,25.60
2019-02-17T01:44:03.620Z,26.33
2019-02-17T01:46:34.852Z,26.13
2019-02-17T01:49:06.066Z,24.63
2019-02-17T01:51:37.369Z,24.57
2019-02-17T01:54:08.643Z,25.97
2019-02-17T01:56:39.897Z,24.30
2019-02-17T01:59:11.179Z,22.60
2019-02-17T02:01:42.646Z,24.53
2019-02-17T02:04:13.920Z,23.10
2019-02-17T02:06:45.236Z,23.13
2019-02-17T02:09:16.463Z,21.43
2019-02-17T02:11:47.713Z,23.83
2019-02-17T02:14:19.013Z,21.33
2019-02-17T02:16:50.270Z,22.30
2019-02-17T02:19:21.656Z,21.10
2019-02-17T02:21:52.914Z,22.40
2019-02-17T02:24:24.148Z,21.10
2019-02-17T02:26:55.373Z,22.83
2019-02-17T02:29:26.652Z,22.33
2019-02-17T02:31:57.856Z,20.90
2019-02-17T02:34:29.158Z,22.37
2019-02-17T02:37:00.394Z,22.57
2019-02-17T02:39:31.725Z,22.70
2019-02-17T02:42:02.946Z,21.83
2019-02-17T02:44:34.229Z,24.00
2019-02-17T02:47:05.402Z,22.70
2019-02-17T02:49:36.668Z,22.80
2019-02-17T02:52:07.951Z,23.57
2019-02-17T02:54:39.215Z,22.20
2019-02-17T02:57:10.408Z,23.00
2019-02-17T02:59:51.973Z,22.63
2019-02-17T03:02:14.604Z,21.33
2019-02-17T03:04:45.877Z,25.27
2019-02-17T03:07:19.792Z,21.37
2019-02-17T03:09:51.057Z,21.53
2019-02-17T03:12:22.318Z,21.83
2019-02-17T03:14:53.592Z,23.40
2019-02-17T03:17:24.837Z,22.37
2019-02-17T03:19:56.135Z,21.43
2019-02-17T03:22:27.411Z,23.30
2019-02-17T03:24:58.691Z,23.47
2019-02-17T03:27:29.843Z,22.13
2019-02-17T03:30:04.872Z,23.73
2019-02-17T03:32:34.086Z,23.60
2019-02-17T03:35:05.461Z,22.90
2019-02-17T03:37:36.742Z,22.63
2019-02-17T03:40:08.939Z,22.13
2019-02-17T03:42:40.087Z,23.13
2019-02-17T03:45:11.517Z,22.50
2019-02-17T03:47:42.759Z,21.40
2019-02-17T03:50:14.042Z,22.70
2019-02-17T03:52:45.266Z,23.70
2019-02-17T03:55:16.565Z,24.73
2019-02-17T03:57:47.813Z,24.20
2019-02-17T04:00:19.111Z,24.20
2019-02-17T04:02:50.344Z,21.30
2019-02-17T04:05:21.567Z,23.20
2019-02-17T04:07:52.899Z,23.43
2019-02-17T04:10:24.167Z,24.40
2019-02-17T04:12:55.451Z,21.90
2019-02-17T04:15:26.727Z,22.90
2019-02-17T04:17:57.955Z,23.13
2019-02-17T04:20:29.133Z,22.47
2019-02-17T04:23:00.388Z,23.00
2019-02-17T04:25:31.649Z,23.27
2019-02-17T04:28:02.906Z,23.00
2019-02-17T04:30:34.205Z,21.60
2019-02-17T04:33:05.481Z,21.67
2019-02-17T04:35:36.730Z,19.93
2019-02-17T04:38:08.046Z,20.37
2019-02-17T04:40:39.325Z,20.20
2019-02-17T04:43:10.490Z,23.13
2019-02-17T04:45:41.740Z,20.47
2019-02-17T04:48:13.032Z,19.37
2019-02-17T04:50:44.276Z,20.87
2019-02-17T04:53:15.465Z,23.13
2019-02-17T04:55:46.744Z,21.27
2019-02-17T04:58:18.005Z,21.90
2019-02-17T05:00:50.026Z,23.03
2019-02-17T05:03:21.423Z,23.33
2019-02-17T05:05:52.713Z,23.40
2019-02-17T05:08:23.960Z,20.47
2019-02-17T05:10:55.324Z,22.23
2019-02-17T05:13:26.491Z,24.47
2019-02-17T05:15:57.777Z,21.57
2019-02-17T05:18:29.017Z,21.10
2019-02-17T05:21:00.287Z,20.47
2019-02-17T05:23:31.522Z,20.37
2019-02-17T05:26:02.891Z,20.13
2019-02-17T05:28:34.184Z,18.47
2019-02-17T05:31:05.520Z,22.30
2019-02-17T05:33:36.811Z,22.03
2019-02-17T05:36:08.004Z,20.47
2019-02-17T05:38:39.208Z,21.23
2019-02-17T05:41:10.515Z,21.67
2019-02-17T05:43:41.815Z,24.43
2019-02-17T05:46:32.046Z,22.13
2019-02-17T05:49:03.367Z,21.87
2019-02-17T05:51:34.602Z,21.80
2019-02-17T05:54:05.933Z,18.57
2019-02-17T05:56:37.209Z,20.73
2019-02-17T05:59:08.478Z,20.03
2019-02-17T06:01:39.757Z,21.77
2019-02-17T06:04:11.030Z,19.63
2019-02-17T06:06:42.298Z,21.30
2019-02-17T06:09:13.512Z,21.60
2019-02-17T06:11:44.797Z,19.00
2019-02-17T06:14:15.947Z,22.07
2019-02-17T06:16:47.244Z,19.50
2019-02-17T06:19:18.390Z,19.40
2019-02-17T06:21:49.659Z,21.07
2019-02-17T06:24:20.937Z,22.30
2019-02-17T06:26:52.197Z,21.47
2019-02-17T06:29:23.507Z,20.77
2019-02-17T06:31:54.741Z,21.50
2019-02-17T06:34:25.914Z,20.70
2019-02-17T06:36:57.079Z,21.27
2019-02-17T06:39:28.393Z,21.00
2019-02-17T06:41:59.630Z,22.23
2019-02-17T06:44:30.803Z,25.80
2019-02-17T06:47:06.016Z,24.00
2019-02-17T06:49:37.311Z,23.93
2019-02-17T06:52:08.558Z,22.40
2019-02-17T06:54:39.852Z,20.70
2019-02-17T06:57:17.522Z,21.53
2019-02-17T06:59:48.816Z,22.23
2019-02-17T07:02:20.088Z,21.43
2019-02-17T07:05:22.033Z,20.80
2019-02-17T07:07:53.267Z,25.40
2019-02-17T07:10:24.552Z,23.07
2019-02-17T07:12:55.751Z,21.60
2019-02-17T07:15:27.049Z,23.10
2019-02-17T07:17:59.195Z,22.40
2019-02-17T07:20:30.575Z,25.43
2019-02-17T07:23:01.835Z,25.43
2019-02-17T07:25:33.234Z,24.80
2019-02-17T07:28:04.572Z,24.77
2019-02-17T07:30:35.852Z,25.87
2019-02-17T07:33:07.175Z,23.17
2019-02-17T07:35:38.418Z,24.40
2019-02-17T07:38:09.884Z,24.23
2019-02-17T07:40:41.096Z,22.33
2019-02-17T07:43:12.396Z,21.20
2019-02-17T07:45:43.764Z,21.07
2019-02-17T07:48:15.088Z,21.80
2019-02-17T07:50:46.355Z,25.47
2019-02-17T07:53:17.703Z,21.70
2019-02-17T07:55:48.923Z,20.70
2019-02-17T07:58:20.219Z,23.33
2019-02-17T08:00:51.469Z,21.63
2019-02-17T08:03:22.729Z,22.10
2019-02-17T08:05:53.960Z,23.27
2019-02-17T08:08:25.212Z,21.80
2019-02-17T08:11:03.758Z,21.40
2019-02-17T08:13:29.418Z,23.93
2019-02-17T08:16:00.671Z,21.07
2019-02-17T08:18:31.813Z,20.50
2019-02-17T08:21:03.087Z,22.07
2019-02-17T08:23:34.311Z,18.87
2019-02-17T08:26:05.581Z,17.50
2019-02-17T08:28:36.724Z,17.00
2019-02-17T08:31:08.018Z,15.43
2019-02-17T08:33:39.215Z,17.17
2019-02-17T08:36:10.452Z,15.80
2019-02-17T08:38:41.723Z,16.30
2019-02-17T08:41:12.986Z,16.87
2019-02-17T08:43:44.285Z,14.60
2019-02-17T08:46:15.544Z,17.47
2019-02-17T08:48:46.863Z,16.97
2019-02-17T08:51:18.139Z,17.30
2019-02-17T08:53:49.414Z,17.97
2019-02-17T08:56:20.676Z,17.53
2019-02-17T08:58:51.983Z,17.40
2019-02-17T09:01:23.278Z,17.20
2019-02-17T09:03:54.579Z,17.10
2019-02-17T09:06:25.821Z,17.10
2019-02-17T09:08:57.053Z,17.77
2019-02-17T09:11:47.374Z,18.40
2019-02-17T09:14:18.674Z,16.17
2019-02-17T09:16:49.845Z,16.20
2019-02-17T09:19:21.252Z,16.30
2019-02-17T09:21:52.520Z,14.87
2019-02-17T09:24:23.719Z,15.30
2019-02-17T09:26:54.869Z,21.63
2019-02-17T09:29:26.045Z,18.03
2019-02-17T09:31:59.336Z,18.10
2019-02-17T09:34:30.253Z,16.40
2019-02-17T09:37:01.505Z,16.70
2019-02-17T09:39:32.812Z,16.47
2019-02-17T09:42:04.175Z,16.70
2019-02-17T09:44:35.484Z,16.80
2019-02-17T09:47:06.683Z,16.57
2019-02-17T09:49:37.870Z,17.50
2019-02-17T09:52:09.001Z,17.10
2019-02-17T09:54:40.148Z,17.27
2019-02-17T09:57:11.329Z,17.20
2019-02-17T09:59:42.629Z,18.20
2019-02-17T10:02:13.858Z,17.90
2019-02-17T10:04:45.144Z,16.13
2019-02-17T10:07:16.371Z,16.73
2019-02-17T10:09:47.674Z,17.60
2019-02-17T10:12:18.926Z,18.50
2019-02-17T10:14:50.217Z,17.30
2019-02-17T10:17:21.452Z,17.23
2019-02-17T10:19:52.667Z,16.73
2019-02-17T10:22:23.991Z,17.30
2019-02-17T10:24:55.260Z,16.70
2019-02-17T10:27:26.940Z,16.50
2019-02-17T10:29:58.146Z,15.00
2019-02-17T10:32:37.069Z,16.80
2019-02-17T10:35:02.504Z,16.53
2019-02-17T10:37:34.016Z,16.43
2019-02-17T10:40:07.345Z,16.53
2019-02-17T10:42:38.676Z,15.10
2019-02-17T10:45:11.443Z,14.10
2019-02-17T10:47:42.739Z,15.40
2019-02-17T10:50:14.627Z,13.30
2019-02-17T10:52:48.819Z,13.07
2019-02-17T10:55:23.265Z,11.93
2019-02-17T10:57:57.298Z,13.23
2019-02-17T11:00:30.319Z,12.30
2019-02-17T11:03:10.613Z,12.07
2019-02-17T11:05:42.175Z,11.70
2019-02-17T11:08:14.125Z,12.27
2019-02-17T11:10:47.293Z,11.77
2019-02-17T11:13:19.021Z,10.47
2019-02-17T11:15:50.383Z,11.30
2019-02-17T11:18:21.850Z,10.70
2019-02-17T11:20:53.178Z,10.40
2019-02-17T11:23:24.715Z,11.47
2019-02-17T11:25:56.080Z,11.20
2019-02-17T11:28:27.329Z,12.90
2019-02-17T11:30:58.715Z,12.03
2019-02-17T11:33:30.229Z,11.27
2019-02-17T11:36:01.717Z,11.10
2019-02-17T11:38:33.125Z,11.00
2019-02-17T11:41:04.781Z,11.73
2019-02-17T11:43:36.283Z,9.27
2019-02-17T11:46:07.682Z,11.37
2019-02-17T11:48:39.328Z,12.27
2019-02-17T11:51:10.501Z,10.53
2019-02-17T11:53:41.744Z,10.17
2019-02-17T11:56:13.016Z,10.43
2019-02-17T11:58:44.318Z,9.70
2019-02-17T12:01:15.585Z,10.10
2019-02-17T12:03:46.897Z,9.80
2019-02-17T12:06:19.393Z,10.90
2019-02-17T12:08:52.421Z,11.70
2019-02-17T12:11:23.687Z,10.00
2019-02-17T12:13:54.997Z,9.30
2019-02-17T12:16:36.492Z,11.07
2019-02-17T12:18:59.124Z,9.60
2019-02-17T12:21:37.161Z,10.63
2019-02-17T12:24:13.165Z,9.67
2019-02-17T12:27:06.036Z,10.30
2019-02-17T12:29:58.973Z,9.67
2019-02-17T12:32:31.109Z,11.53
2019-02-17T12:35:02.420Z,8.83
2019-02-17T12:37:33.820Z,12.60
2019-02-17T12:40:05.475Z,8.80
2019-02-17T12:42:36.896Z,10.27
2019-02-17T12:45:12.093Z,9.80
2019-02-17T12:47:43.392Z,9.57
2019-02-17T12:50:15.088Z,9.80
2019-02-17T12:52:47.476Z,11.40
2019-02-17T12:55:19.339Z,9.83
2019-02-17T12:57:50.598Z,10.70
2019-02-17T13:00:21.941Z,9.37
2019-02-17T13:02:53.156Z,8.70
2019-02-17T13:05:24.486Z,10.50
2019-02-17T13:07:55.793Z,10.37
2019-02-17T13:10:29.077Z,10.13
2019-02-17T13:12:59.983Z,9.37
2019-02-17T13:15:31.260Z,11.30
2019-02-17T13:18:02.690Z,9.60
2019-02-17T13:20:34.079Z,9.23
2019-02-17T13:23:05.868Z,9.80
2019-02-17T13:25:38.250Z,10.20
2019-02-17T13:28:11.333Z,10.80
2019-02-17T13:30:42.645Z,9.60
2019-02-17T13:33:14.146Z,9.53
2019-02-17T13:35:45.463Z,8.10
2019-02-17T13:38:16.838Z,9.70
2019-02-17T13:40:48.279Z,8.03
2019-02-17T13:43:19.572Z,8.63
2019-02-17T13:45:50.796Z,8.97
2019-02-17T13:48:22.145Z,9.50
2019-02-17T13:50:53.379Z,8.40
2019-02-17T13:53:24.630Z,8.83
2019-02-17T13:55:55.825Z,7.80
2019-02-17T13:58:27.079Z,8.30
2019-02-17T14:00:58.268Z,8.20
2019-02-17T14:03:29.510Z,7.47
2019-02-17T14:06:00.733Z,8.60
2019-02-17T14:08:31.969Z,8.97
2019-02-17T14:11:03.222Z,8.27
2019-02-17T14:13:34.340Z,8.03
2019-02-17T14:16:05.534Z,9.47
2019-02-17T14:18:36.806Z,8.03
2019-02-17T14:21:08.064Z,7.77
2019-02-17T14:23:39.384Z,8.60
2019-02-17T14:26:10.620Z,7.63
2019-02-17T14:28:41.915Z,8.03
2019-02-17T14:31:13.195Z,8.00
2019-02-17T14:33:44.462Z,7.83
2019-02-17T14:36:15.732Z,7.40
2019-02-17T14:38:47.041Z,7.93
2019-02-17T14:41:18.311Z,7.53
2019-02-17T14:43:49.577Z,6.93
2019-02-17T14:46:20.815Z,6.40
2019-02-17T14:48:52.030Z,7.20
2019-02-17T14:51:23.326Z,6.67
2019-02-17T14:53:54.551Z,7.37
2019-02-17T14:56:25.739Z,6.60
2019-02-17T14:58:56.942Z,6.87
2019-02-17T15:01:28.195Z,7.10
2019-02-17T15:04:08.109Z,6.13
2019-02-17T15:06:32.315Z,7.20
2019-02-17T15:09:05.281Z,6.40
2019-02-17T15:11:36.536Z,7.03
2019-02-17T15:14:07.836Z,7.80
2019-02-17T15:16:39.069Z,5.97
2019-02-17T15:19:10.364Z,6.43
2019-02-17T15:21:41.637Z,6.63
2019-02-17T15:24:12.921Z,6.50
2019-02-17T15:26:44.145Z,7.40
2019-02-17T15:29:15.799Z,6.37
2019-02-17T15:31:47.058Z,6.70
2019-02-17T15:34:19.030Z,6.30
2019-02-17T15:36:50.398Z,6.40
2019-02-17T15:39:21.824Z,6.27
2019-02-17T15:41:53.169Z,6.90
2019-02-17T15:44:24.423Z,5.97
2019-02-17T15:46:55.723Z,6.70
2019-02-17T15:49:26.870Z,8.10
2019-02-17T15:51:58.326Z,6.80
2019-02-17T15:54:48.594Z,7.20
2019-02-17T15:57:19.902Z,5.60
2019-02-17T15:59:51.107Z,8.00
2019-02-17T16:02:22.411Z,7.50
2019-02-17T16:04:53.704Z,8.37
2019-02-17T16:07:25.029Z,6.57
2019-02-17T16:09:56.343Z,6.93
2019-02-17T16:12:30.008Z,7.50
2019-02-17T16:15:01.317Z,6.83
2019-02-17T16:17:32.622Z,6.97
2019-02-17T16:20:03.840Z,6.80
2019-02-17T16:22:35.010Z,6.67
2019-02-17T16:25:06.416Z,6.50
2019-02-17T16:27:37.668Z,6.50
2019-02-17T16:30:12.995Z,7.20
2019-02-17T16:32:44.240Z,6.50
2019-02-17T16:35:16.069Z,7.67
2019-02-17T16:37:47.416Z,7.73
2019-02-17T16:40:18.798Z,7.10
2019-02-17T16:42:49.952Z,8.77
2019-02-17T16:45:21.446Z,8.47
2019-02-17T16:47:52.762Z,8.37
2019-02-17T16:50:24.097Z,11.67
2019-02-17T16:52:55.419Z,9.10
2019-02-17T16:55:26.707Z,7.80
2019-02-17T16:57:58.095Z,8.23
2019-02-17T17:00:29.397Z,8.40
2019-02-17T17:03:19.679Z,8.20
2019-02-17T17:05:50.902Z,9.33
2019-02-17T17:08:23.792Z,8.00
2019-02-17T17:10:55.060Z,9.57
2019-02-17T17:13:26.806Z,9.80
2019-02-17T17:15:58.239Z,13.27
2019-02-17T17:18:29.597Z,14.23
2019-02-17T17:21:00.908Z,13.80
2019-02-17T17:23:32.163Z,16.03
2019-02-17T17:26:03.451Z,12.30
2019-02-17T17:28:34.720Z,10.73
2019-02-17T17:31:05.987Z,11.80
2019-02-17T17:33:37.240Z,10.10
2019-02-17T17:36:08.640Z,10.83
2019-02-17T17:38:44.197Z,11.07
2019-02-17T17:41:15.447Z,11.97
2019-02-17T17:43:46.584Z,13.27
2019-02-17T17:46:23.844Z,11.33
2019-02-17T17:48:55.181Z,9.97
2019-02-17T17:51:26.490Z,9.20
2019-02-17T17:53:58.182Z,9.13
2019-02-17T17:56:29.466Z,8.30
2019-02-17T17:59:00.794Z,8.43
2019-02-17T18:01:32.066Z,7.87
2019-02-17T18:04:03.437Z,8.70
2019-02-17T18:06:34.696Z,8.00
2019-02-17T18:09:07.919Z,10.33
2019-02-17T18:11:39.245Z,9.97
2019-02-17T18:14:10.555Z,10.20
2019-02-17T18:16:41.890Z,9.57
2019-02-17T18:19:13.211Z,11.30
2019-02-17T18:21:44.617Z,11.37
2019-02-17T18:24:15.895Z,11.30
2019-02-17T18:26:47.206Z,10.97
2019-02-17T18:29:18.483Z,11.97
2019-02-17T18:31:49.772Z,11.23
2019-02-17T18:34:21.060Z,15.57
2019-02-17T18:36:52.433Z,12.27
2019-02-17T18:39:23.726Z,9.47
2019-02-17T18:41:55.589Z,11.23
2019-02-17T18:44:26.853Z,9.40
2019-02-17T18:46:58.206Z,7.90
2019-02-17T18:49:29.446Z,7.83
2019-02-17T18:52:00.778Z,7.07
2019-02-17T18:54:32.064Z,8.03
2019-02-17T18:57:08.293Z,9.00
2019-02-17T18:59:36.266Z,10.30
2019-02-17T19:02:09.853Z,8.17
2019-02-17T19:04:42.345Z,7.80
2019-02-17T19:07:13.630Z,8.70
2019-02-17T19:09:45.042Z,7.67
2019-02-17T19:12:16.354Z,7.57
2019-02-17T19:14:47.662Z,5.83
2019-02-17T19:17:18.990Z,6.23
2019-02-17T19:19:50.354Z,6.70
2019-02-17T19:22:21.716Z,6.10
2019-02-17T19:24:53.092Z,6.10
2019-02-17T19:27:24.302Z,5.57
2019-02-17T19:29:55.623Z,5.03
2019-02-17T19:32:26.947Z,5.50
2019-02-17T19:34:58.235Z,4.83
2019-02-17T19:37:29.663Z,6.00
2019-02-17T19:40:00.922Z,6.03
2019-02-17T19:42:32.219Z,5.80
2019-02-17T19:45:03.501Z,5.17
2019-02-17T19:47:34.786Z,5.13
2019-02-17T19:50:06.292Z,6.30
2019-02-17T19:52:37.659Z,6.40
2019-02-17T19:55:13.668Z,6.57
2019-02-17T19:57:45.093Z,6.10
2019-02-17T20:00:16.508Z,6.90
2019-02-17T20:03:05.374Z,7.77
2019-02-17T20:05:38.861Z,6.27
2019-02-17T20:08:10.192Z,5.27
2019-02-17T20:10:42.036Z,6.27
2019-02-17T20:13:13.418Z,6.20
2019-02-17T20:15:44.682Z,5.97
2019-02-17T20:18:15.948Z,6.70
2019-02-17T20:20:47.260Z,7.07
2019-02-17T20:23:18.623Z,7.70
2019-02-17T20:25:49.903Z,7.10
2019-02-17T20:30:50.325Z,8.13
2019-02-17T20:33:21.619Z,7.50
2019-02-17T20:36:02.424Z,7.03
2019-02-17T20:38:26.392Z,7.53
2019-02-17T20:40:57.590Z,7.97
2019-02-17T20:43:28.905Z,7.57
2019-02-17T20:46:00.214Z,7.60
2019-02-17T20:48:31.600Z,7.23
2019-02-17T20:51:02.957Z,7.60
2019-02-17T20:53:34.503Z,7.27
2019-02-17T20:56:06.235Z,7.60
2019-02-17T20:58:37.730Z,6.83
2019-02-17T21:01:09.254Z,8.50
2019-02-17T21:03:40.595Z,8.37
2019-02-17T21:06:13.058Z,7.77
2019-02-17T21:08:44.445Z,8.50
2019-02-17T21:11:15.790Z,7.30
2019-02-17T21:13:47.041Z,8.20
2019-02-17T21:16:18.324Z,7.30
2019-02-17T21:18:49.589Z,8.70
2019-02-17T21:21:20.768Z,7.50
2019-02-17T21:23:52.132Z,9.20
2019-02-17T21:26:26.244Z,8.50
2019-02-17T21:28:56.363Z,8.73
2019-02-17T21:31:27.615Z,7.97
2019-02-17T21:34:20.929Z,8.23
2019-02-17T21:36:52.188Z,6.97
2019-02-17T21:39:23.481Z,8.53
2019-02-17T21:41:54.788Z,8.30
2019-02-17T21:44:26.148Z,7.77
2019-02-17T21:46:57.472Z,7.37
2019-02-17T21:49:28.697Z,7.50
2019-02-17T21:51:59.975Z,7.80
2019-02-17T21:54:31.287Z,8.00
2019-02-17T21:57:02.595Z,7.47
2019-02-17T21:59:33.900Z,7.10
2019-02-17T22:02:05.279Z,8.07
2019-02-17T22:04:36.865Z,8.70
2019-02-17T22:07:08.177Z,8.90
2019-02-17T22:09:39.488Z,8.03
2019-02-17T22:12:10.663Z,10.07
2019-02-17T22:14:41.919Z,8.50
2019-02-17T22:17:13.161Z,8.47
2019-02-17T22:19:44.459Z,7.43
2019-02-17T22:22:15.912Z,9.53
2019-02-17T22:24:50.585Z,8.90
2019-02-17T22:27:21.793Z,7.80
2019-02-17T22:29:53.044Z,7.70
2019-02-17T22:32:24.304Z,8.00
2019-02-17T22:34:55.505Z,8.60
2019-02-17T22:37:26.797Z,9.20
2019-02-17T22:39:58.020Z,9.10
2019-02-17T22:42:29.231Z,9.60
2019-02-17T22:45:00.477Z,9.80
2019-02-17T22:47:31.785Z,8.20
2019-02-17T22:50:03.008Z,8.53
2019-02-17T22:52:34.205Z,9.07
2019-02-17T22:55:06.011Z,9.13
2019-02-17T22:57:37.310Z,8.40
2019-02-17T23:00:41.007Z,8.90
2019-02-17T23:03:12.332Z,9.57
2019-02-17T23:05:43.577Z,8.30
2019-02-17T23:08:14.884Z,9.00
2019-02-17T23:10:46.170Z,9.43
2019-02-17T23:13:17.415Z,9.43
2019-02-17T23:15:48.580Z,8.53
2019-02-17T23:18:19.769Z,7.60
2019-02-17T23:20:51.080Z,8.80
2019-02-17T23:23:22.291Z,7.30
2019-02-17T23:25:53.545Z,9.50
2019-02-17T23:28:24.729Z,8.80
2019-02-17T23:30:56.060Z,8.73
2019-02-17T23:33:27.419Z,8.30
2019-02-17T23:35:58.674Z,10.23
2019-02-17T23:38:29.876Z,10.40
2019-02-17T23:41:01.170Z,9.80
2019-02-17T23:43:32.417Z,9.43
2019-02-17T23:46:04.656Z,10.33
2019-02-17T23:48:35.936Z,9.33
2019-02-17T23:51:07.210Z,9.47
2019-02-17T23:53:38.608Z,8.07
2019-02-17T23:56:09.957Z,9.33
2019-02-17T23:58:41.236Z,10.43
